Time;durP1;ratioP1;P1;durP2;ratioP2;P2;SDS_P1;SDS_P2;PMS_P1;PMS_P2;Temp;Humidity;BMP_temperature;BMP_pressure;BME280_temperature;BME280_humidity;BME280_pressure;Samples;Min_cycle;Max_cycle;Signal;HPM_P1;HPM_P2
2022/08/05 00:00:27;;;;;;;5.13;2.10;;;23.40;99.90;;;;;;2075476;28;20033;-71
2022/08/05 00:01:28;;;;;;;3.22;2.03;;;23.40;99.90;;;;;;2077545;28;20108;-71
2022/08/05 00:02:29;;;;;;;5.57;2.00;;;23.40;99.90;;;;;;2076312;28;20109;-71
2022/08/05 00:03:29;;;;;;;4.50;2.60;;;23.30;99.90;;;;;;2075826;28;20040;-71
2022/08/05 00:04:30;;;;;;;7.03;2.13;;;23.30;99.90;;;;;;2072650;28;20053;-71
2022/08/05 00:05:30;;;;;;;5.32;2.45;;;23.20;99.90;;;;;;2077004;28;20102;-71
2022/08/05 00:06:31;;;;;;;6.13;2.13;;;23.20;99.90;;;;;;2073805;28;20546;-70
2022/08/05 00:07:31;;;;;;;4.13;2.03;;;23.20;99.90;;;;;;2074767;28;20022;-71
2022/08/05 00:08:32;;;;;;;7.03;2.03;;;23.10;99.90;;;;;;2066380;28;20026;-70
2022/08/05 00:09:32;;;;;;;3.03;2.08;;;23.10;99.90;;;;;;2075510;28;20061;-70
2022/08/05 00:10:33;;;;;;;3.05;1.80;;;23.10;99.90;;;;;;2075240;28;20101;-70
2022/08/05 00:11:33;;;;;;;1.70;1.60;;;23.10;99.90;;;;;;2071795;28;20033;-70
2022/08/05 00:12:34;;;;;;;3.03;1.95;;;23.10;99.90;;;;;;2076602;28;20017;-70
2022/08/05 00:13:36;;;;;;;6.25;1.98;;;23.10;99.90;;;;;;2075240;28;20029;-70
2022/08/05 00:14:37;;;;;;;4.32;2.45;;;23.10;99.90;;;;;;2076687;28;20061;-70
2022/08/05 00:15:37;;;;;;;3.65;1.73;;;23.10;99.90;;;;;;2072852;28;20079;-70
2022/08/05 00:16:38;;;;;;;2.63;1.88;;;23.10;99.90;;;;;;2074532;28;20104;-70
2022/08/05 00:17:38;;;;;;;3.28;2.00;;;23.10;99.90;;;;;;2076840;28;20103;-70
2022/08/05 00:18:44;;;;;;;4.00;1.90;;;23.10;99.90;;;;;;2074257;28;20033;-70
2022/08/05 00:19:44;;;;;;;4.00;1.75;;;23.10;99.90;;;;;;2077000;28;20041;-70
2022/08/05 00:20:45;;;;;;;2.63;1.75;;;23.10;99.90;;;;;;2073527;28;20455;-70
2022/08/05 00:21:46;;;;;;;2.78;2.03;;;23.10;99.90;;;;;;2076838;28;20105;-70
2022/08/05 00:22:46;;;;;;;2.22;1.73;;;23.10;99.90;;;;;;2075393;28;20495;-70
2022/08/05 00:23:47;;;;;;;4.35;1.85;;;23.10;99.90;;;;;;2075834;28;20034;-70
2022/08/05 00:24:48;;;;;;;3.22;2.08;;;23.10;99.90;;;;;;2075750;28;20474;-70
2022/08/05 00:25:49;;;;;;;5.47;2.20;;;23.10;99.90;;;;;;2076452;28;20434;-70
2022/08/05 00:26:49;;;;;;;3.45;2.10;;;23.10;99.90;;;;;;2074729;28;20075;-70
2022/08/05 00:27:50;;;;;;;3.08;2.20;;;23.10;99.90;;;;;;2074803;28;20072;-70
2022/08/05 00:28:50;;;;;;;3.83;2.33;;;23.10;99.90;;;;;;2075254;28;20106;-70
2022/08/05 00:29:51;;;;;;;3.47;2.08;;;23.10;99.90;;;;;;2078054;28;20393;-70
2022/08/05 00:30:51;;;;;;;3.88;2.10;;;23.10;99.90;;;;;;2077865;28;20033;-70
2022/08/05 00:31:53;;;;;;;6.50;2.00;;;23.10;99.90;;;;;;2072798;28;20769;-70
2022/08/05 00:32:54;;;;;;;6.85;2.50;;;23.10;99.90;;;;;;2074950;28;20017;-70
2022/08/05 00:33:54;;;;;;;4.15;2.47;;;23.10;99.90;;;;;;2073669;28;20434;-70
2022/08/05 00:34:55;;;;;;;3.13;1.90;;;23.10;99.90;;;;;;2073842;28;20033;-70
2022/08/05 00:35:55;;;;;;;6.88;2.00;;;23.10;99.90;;;;;;2075372;28;20057;-70
2022/08/05 00:36:56;;;;;;;3.78;2.05;;;23.10;99.90;;;;;;2072579;28;20093;-70
2022/08/05 00:37:56;;;;;;;3.47;1.98;;;23.00;99.90;;;;;;2071870;28;20084;-71
2022/08/05 00:38:57;;;;;;;3.47;2.30;;;23.00;99.90;;;;;;2074763;28;20047;-70
2022/08/05 00:39:57;;;;;;;4.22;2.40;;;23.00;99.90;;;;;;2073184;28;20073;-70
2022/08/05 00:40:58;;;;;;;6.32;2.42;;;23.00;99.90;;;;;;2075561;28;20021;-70
2022/08/05 00:41:58;;;;;;;3.00;2.00;;;23.00;99.90;;;;;;2076225;28;20017;-70
2022/08/05 00:43:01;;;;;;;4.55;2.53;;;23.00;99.90;;;;;;2074469;28;20780;-70
2022/08/05 00:44:02;;;;;;;3.20;2.60;;;23.00;99.90;;;;;;2075557;28;20022;-70
2022/08/05 00:45:06;;;;;;;4.47;2.17;;;22.90;99.90;;;;;;2073934;28;20104;-70
2022/08/05 00:46:06;;;;;;;3.47;2.10;;;23.00;99.90;;;;;;2072651;28;20022;-71
2022/08/05 00:47:07;;;;;;;5.90;2.35;;;22.90;99.90;;;;;;2072076;28;20585;-70
2022/08/05 00:48:09;;;;;;;2.47;2.03;;;22.90;99.90;;;;;;2076511;28;20061;-70
2022/08/05 00:49:09;;;;;;;3.80;2.08;;;22.90;99.90;;;;;;2075177;28;20092;-70
2022/08/05 00:50:10;;;;;;;3.20;2.30;;;22.90;99.90;;;;;;2073018;28;20084;-70
2022/08/05 00:51:11;;;;;;;3.25;2.55;;;22.90;99.90;;;;;;2075263;28;20033;-70
2022/08/05 00:52:11;;;;;;;4.03;2.13;;;22.90;99.90;;;;;;2074195;28;20386;-70
2022/08/05 00:53:15;;;;;;;3.85;2.20;;;22.90;99.90;;;;;;2073714;28;20116;-70
2022/08/05 00:54:16;;;;;;;6.57;2.15;;;22.90;99.90;;;;;;2072297;28;20018;-70
2022/08/05 00:55:16;;;;;;;7.45;2.28;;;22.90;99.90;;;;;;2075214;28;20025;-70
2022/08/05 00:56:17;;;;;;;5.90;2.10;;;22.90;99.90;;;;;;2076034;28;20166;-70
2022/08/05 00:57:18;;;;;;;3.20;1.98;;;22.90;99.90;;;;;;2072122;28;20385;-70
2022/08/05 00:58:18;;;;;;;4.13;2.20;;;22.90;99.90;;;;;;2072852;28;20863;-70
2022/08/05 00:59:19;;;;;;;2.35;2.15;;;22.90;99.90;;;;;;2076135;28;20370;-71
2022/08/05 01:00:19;;;;;;;3.47;1.95;;;22.90;99.90;;;;;;2073875;28;20541;-71
2022/08/05 01:01:20;;;;;;;3.22;1.90;;;22.90;99.90;;;;;;2073231;28;20053;-71
2022/08/05 01:02:20;;;;;;;2.28;1.83;;;22.90;99.90;;;;;;2072098;28;20021;-71
2022/08/05 01:03:21;;;;;;;6.43;2.53;;;22.90;99.90;;;;;;2071941;28;20505;-71
2022/08/05 01:04:22;;;;;;;2.65;2.05;;;22.90;99.90;;;;;;2073682;28;20092;-71
2022/08/05 01:05:23;;;;;;;3.50;2.15;;;22.90;99.90;;;;;;2074723;28;20116;-71
2022/08/05 01:06:24;;;;;;;4.97;2.20;;;22.90;99.90;;;;;;2073748;28;20030;-71
2022/08/05 01:07:24;;;;;;;5.40;2.40;;;22.90;99.90;;;;;;2075329;28;20441;-71
2022/08/05 01:08:25;;;;;;;3.05;2.15;;;22.80;99.90;;;;;;2074011;28;20109;-71
2022/08/05 01:09:25;;;;;;;3.45;2.00;;;22.80;99.90;;;;;;2073349;28;20052;-71
2022/08/05 01:10:56;;;;;;;4.93;2.15;;;22.80;99.90;;;;;;2072994;28;20021;-71
2022/08/05 01:12:02;;;;;;;3.35;2.25;;;22.80;99.90;;;;;;2067859;28;20033;-71
2022/08/05 01:13:13;;;;;;;2.55;1.98;;;22.80;99.90;;;;;;2075171;28;20087;-71
2022/08/05 01:14:24;;;;;;;2.25;2.05;;;22.80;99.90;;;;;;2073683;28;20060;-71
2022/08/05 01:15:33;;;;;;;4.20;2.25;;;22.70;99.90;;;;;;2075152;28;20024;-71
2022/08/05 01:17:12;;;;;;;3.50;2.10;;;22.80;99.90;;;;;;2072386;28;20079;-71
2022/08/05 01:18:21;;;;;;;3.00;1.88;;;22.60;99.90;;;;;;2039342;29;20396;-71
2022/08/05 01:19:21;;;;;;;3.10;2.30;;;22.70;99.90;;;;;;2068877;28;20037;-71
2022/08/05 01:21:05;;;;;;;5.82;2.33;;;22.60;99.90;;;;;;2073711;28;20033;-71
2022/08/05 01:22:11;;;;;;;2.60;1.80;;;22.60;99.90;;;;;;2049170;28;20134;-71
2022/08/05 01:23:22;;;;;;;4.57;2.13;;;22.60;99.90;;;;;;2048589;28;20035;-71
2022/08/05 01:24:49;;;;;;;3.17;2.13;;;22.60;99.90;;;;;;2074858;28;20124;-71
2022/08/05 01:26:18;;;;;;;2.95;2.10;;;22.50;99.90;;;;;;2073808;28;20033;-71
2022/08/05 01:27:28;;;;;;;2.28;1.83;;;22.50;99.90;;;;;;2070705;28;20021;-71
2022/08/05 01:28:34;;;;;;;2.30;2.05;;;22.50;99.90;;;;;;2073937;28;20095;-71
2022/08/05 01:29:45;;;;;;;4.50;2.13;;;22.50;99.90;;;;;;2073817;28;20025;-71
2022/08/05 01:31:18;;;;;;;3.60;2.65;;;22.50;99.90;;;;;;2075007;28;20473;-71
2022/08/05 01:32:24;;;;;;;3.30;2.45;;;22.50;99.90;;;;;;2074076;28;20036;-70
2022/08/05 01:33:31;;;;;;;5.55;2.33;;;22.40;99.90;;;;;;2074200;28;20018;-70
2022/08/05 01:34:41;;;;;;;3.17;2.47;;;22.50;99.90;;;;;;2072590;28;20016;-70
2022/08/05 01:35:46;;;;;;;5.93;2.70;;;22.40;99.90;;;;;;2072327;28;20061;-70
2022/08/05 01:37:03;;;;;;;4.95;2.67;;;22.40;99.90;;;;;;2072512;28;20032;-70
2022/08/05 01:38:05;;;;;;;5.78;2.40;;;22.40;99.90;;;;;;2074317;28;20601;-70
2022/08/05 01:39:06;;;;;;;6.15;2.30;;;22.40;99.90;;;;;;2073584;28;20064;-70
2022/08/05 01:40:08;;;;;;;4.75;2.95;;;22.40;99.90;;;;;;2075561;28;20156;-70
2022/08/05 01:41:15;;;;;;;7.75;2.50;;;22.40;99.90;;;;;;2072998;28;20483;-71
2022/08/05 01:42:19;;;;;;;4.25;2.53;;;22.40;99.90;;;;;;2071449;28;20021;-70
2022/08/05 01:43:21;;;;;;;3.55;2.53;;;22.40;99.90;;;;;;2073329;28;20132;-70
2022/08/05 01:44:23;;;;;;;3.42;2.45;;;22.40;99.90;;;;;;2072961;28;20085;-70
2022/08/05 01:45:25;;;;;;;3.55;2.40;;;22.40;99.90;;;;;;2071437;28;20025;-70
2022/08/05 01:46:27;;;;;;;3.35;2.33;;;22.40;99.90;;;;;;2073738;28;20017;-70
2022/08/05 01:47:31;;;;;;;4.80;2.58;;;22.40;99.90;;;;;;2074036;28;20026;-70
2022/08/05 01:48:34;;;;;;;3.88;2.40;;;22.40;99.90;;;;;;2073997;28;20396;-70
2022/08/05 01:49:37;;;;;;;3.40;2.40;;;22.50;99.90;;;;;;2075122;28;20442;-70
2022/08/05 01:50:39;;;;;;;4.45;2.80;;;22.40;99.90;;;;;;2073279;28;20025;-70
2022/08/05 01:51:41;;;;;;;3.00;2.33;;;22.40;99.90;;;;;;2073259;28;20018;-70
2022/08/05 01:52:44;;;;;;;4.25;2.47;;;22.40;99.90;;;;;;2073569;28;20064;-70
2022/08/05 01:53:48;;;;;;;5.60;2.70;;;22.40;99.90;;;;;;2072475;28;20060;-70
2022/08/05 01:54:54;;;;;;;3.45;2.63;;;22.40;99.90;;;;;;2070952;28;20117;-70
2022/08/05 01:55:58;;;;;;;4.28;2.40;;;22.40;99.90;;;;;;2074521;28;20095;-70
2022/08/05 01:57:00;;;;;;;3.92;2.38;;;22.40;99.90;;;;;;2074240;28;20482;-70
2022/08/05 01:58:04;;;;;;;4.53;2.45;;;22.40;99.90;;;;;;2073286;28;20021;-70
2022/08/05 01:59:08;;;;;;;5.25;3.13;;;22.40;99.90;;;;;;2074588;28;20060;-70
2022/08/05 02:00:10;;;;;;;5.03;2.40;;;22.40;99.90;;;;;;2071773;28;20474;-70
2022/08/05 02:01:13;;;;;;;3.42;1.98;;;22.40;99.90;;;;;;2072181;28;20029;-70
2022/08/05 02:02:16;;;;;;;4.05;2.63;;;22.40;99.90;;;;;;2072851;28;20029;-70
2022/08/05 02:03:30;;;;;;;5.53;2.50;;;22.40;99.90;;;;;;2074122;28;20022;-70
2022/08/05 02:04:33;;;;;;;3.35;2.53;;;22.40;99.90;;;;;;2071300;28;20101;-70
2022/08/05 02:05:37;;;;;;;4.18;2.78;;;22.40;99.90;;;;;;2074946;28;20459;-70
2022/08/05 02:06:38;;;;;;;3.80;2.38;;;22.40;99.90;;;;;;2072016;28;20025;-71
2022/08/05 02:07:42;;;;;;;3.80;2.30;;;22.40;99.90;;;;;;2075730;28;20421;-71
2022/08/05 02:08:42;;;;;;;3.42;2.33;;;22.40;99.90;;;;;;2072517;28;20022;-71
2022/08/05 02:09:44;;;;;;;5.13;2.50;;;22.40;99.90;;;;;;2073031;28;20545;-71
2022/08/05 02:10:50;;;;;;;2.97;2.15;;;22.30;99.90;;;;;;2073923;28;20076;-71
2022/08/05 02:12:10;;;;;;;4.13;2.28;;;22.30;99.90;;;;;;2073980;28;20116;-70
2022/08/05 02:13:17;;;;;;;3.08;2.13;;;22.30;99.90;;;;;;2073644;28;20038;-70
2022/08/05 02:14:26;;;;;;;4.82;2.35;;;22.30;99.90;;;;;;2074585;28;20029;-70
2022/08/05 02:15:38;;;;;;;3.08;2.47;;;22.30;99.90;;;;;;2074699;28;20071;-70
2022/08/05 02:16:43;;;;;;;3.88;2.35;;;22.30;99.90;;;;;;2071632;28;20416;-70
2022/08/05 02:17:49;;;;;;;3.40;2.03;;;22.30;99.90;;;;;;2075098;28;20057;-70
2022/08/05 02:18:59;;;;;;;3.42;2.05;;;22.30;99.90;;;;;;2075219;28;20029;-70
2022/08/05 02:20:04;;;;;;;4.10;2.13;;;22.30;99.90;;;;;;2073816;28;20050;-70
2022/08/05 02:21:07;;;;;;;9.40;2.40;;;22.30;99.90;;;;;;2074839;28;20084;-71
2022/08/05 02:22:22;;;;;;;4.95;2.80;;;22.30;99.90;;;;;;2076165;28;20060;-71
2022/08/05 02:23:30;;;;;;;5.53;2.35;;;22.30;99.90;;;;;;2076006;28;20030;-71
2022/08/05 02:24:37;;;;;;;4.82;2.45;;;22.30;99.90;;;;;;2072310;28;20030;-71
2022/08/05 02:25:42;;;;;;;5.30;2.20;;;22.30;99.90;;;;;;2072556;28;20424;-71
2022/08/05 02:26:48;;;;;;;4.28;2.78;;;22.20;99.90;;;;;;2074544;28;20076;-71
2022/08/05 02:27:50;;;;;;;5.43;2.70;;;22.30;99.90;;;;;;2077240;28;20036;-70
2022/08/05 02:28:52;;;;;;;3.25;2.55;;;22.30;99.90;;;;;;2076141;28;20556;-70
2022/08/05 02:29:59;;;;;;;4.47;2.65;;;22.20;99.90;;;;;;2077166;28;20527;-70
2022/08/05 02:31:06;;;;;;;3.30;2.40;;;22.20;99.90;;;;;;2078125;28;20021;-70
2022/08/05 02:32:09;;;;;;;5.38;2.85;;;22.20;99.90;;;;;;2072665;28;20342;-70
2022/08/05 02:33:14;;;;;;;5.43;2.63;;;22.20;99.90;;;;;;2073847;28;20022;-70
2022/08/05 02:34:18;;;;;;;2.67;2.40;;;22.20;99.90;;;;;;2077197;28;20026;-70
2022/08/05 02:35:21;;;;;;;4.40;2.50;;;22.20;99.90;;;;;;2076259;28;20557;-70
2022/08/05 02:36:24;;;;;;;4.10;2.70;;;22.20;99.90;;;;;;2076372;28;20458;-70
2022/08/05 02:37:26;;;;;;;4.95;2.67;;;22.20;99.90;;;;;;2076800;28;20034;-70
2022/08/05 02:38:28;;;;;;;4.88;2.95;;;22.20;99.90;;;;;;2077066;28;20088;-70
2022/08/05 02:39:33;;;;;;;3.40;2.72;;;22.20;99.90;;;;;;2075298;28;20863;-70
2022/08/05 02:40:34;;;;;;;4.32;2.55;;;22.20;99.90;;;;;;2078240;28;20342;-70
2022/08/05 02:41:37;;;;;;;4.72;2.78;;;22.20;99.90;;;;;;2073205;28;20051;-70
2022/08/05 02:42:38;;;;;;;4.45;2.60;;;22.20;99.90;;;;;;2074443;28;20064;-70
2022/08/05 02:43:40;;;;;;;5.65;2.60;;;22.20;99.90;;;;;;2075791;28;20061;-70
2022/08/05 02:44:42;;;;;;;4.32;2.25;;;22.20;99.90;;;;;;2076863;28;20465;-70
2022/08/05 02:45:45;;;;;;;4.95;2.90;;;22.20;99.90;;;;;;2077992;28;20377;-70
2022/08/05 02:46:47;;;;;;;5.72;2.63;;;22.20;99.90;;;;;;2069401;28;20061;-70
2022/08/05 02:47:49;;;;;;;3.83;2.78;;;22.30;99.90;;;;;;2072361;28;20518;-70
2022/08/05 02:48:50;;;;;;;5.80;2.92;;;22.20;99.90;;;;;;2075686;28;20034;-70
2022/08/05 02:49:52;;;;;;;6.22;3.22;;;22.30;99.90;;;;;;2074138;28;20026;-70
2022/08/05 02:50:53;;;;;;;7.30;3.47;;;22.30;99.90;;;;;;2075683;28;20448;-70
2022/08/05 02:51:54;;;;;;;4.97;3.05;;;22.20;99.90;;;;;;2077634;28;20104;-70
2022/08/05 02:52:56;;;;;;;5.05;2.95;;;22.20;99.90;;;;;;2073672;28;20018;-70
2022/08/05 02:53:58;;;;;;;3.90;3.03;;;22.20;99.90;;;;;;2076685;28;20030;-70
2022/08/05 02:55:00;;;;;;;6.55;3.35;;;22.20;99.90;;;;;;2074482;28;20105;-70
2022/08/05 02:56:02;;;;;;;4.93;3.38;;;22.20;99.90;;;;;;2076786;28;20021;-70
2022/08/05 02:57:07;;;;;;;5.10;3.33;;;22.20;99.90;;;;;;2075914;28;20086;-71
2022/08/05 02:58:07;;;;;;;3.17;2.58;;;22.10;99.90;;;;;;2073540;28;20025;-71
2022/08/05 02:59:11;;;;;;;5.55;3.00;;;22.10;99.90;;;;;;2077206;28;20030;-71
2022/08/05 03:00:13;;;;;;;5.53;2.70;;;22.10;99.90;;;;;;2076940;28;20037;-71
2022/08/05 03:01:18;;;;;;;7.28;3.58;;;22.10;99.90;;;;;;2076123;28;20029;-71
2022/08/05 03:02:23;;;;;;;4.30;2.90;;;22.10;99.90;;;;;;2075559;28;20611;-71
2022/08/05 03:03:27;;;;;;;5.15;3.40;;;22.10;99.90;;;;;;2075721;28;20017;-71
2022/08/05 03:04:28;;;;;;;4.63;3.30;;;22.10;99.90;;;;;;2076433;28;20026;-71
2022/08/05 03:05:29;;;;;;;4.90;3.55;;;22.00;99.90;;;;;;2076770;28;20477;-70
2022/08/05 03:06:30;;;;;;;5.97;3.60;;;22.00;99.90;;;;;;2074454;28;20092;-70
2022/08/05 03:07:31;;;;;;;9.68;4.05;;;22.00;99.90;;;;;;2077038;28;20076;-70
2022/08/05 03:08:32;;;;;;;5.05;3.00;;;22.00;99.90;;;;;;2075545;28;20485;-70
2022/08/05 03:09:33;;;;;;;5.53;3.00;;;22.00;99.90;;;;;;2073137;28;20014;-70
2022/08/05 03:10:33;;;;;;;6.28;3.17;;;22.00;99.90;;;;;;2076854;28;20105;-70
2022/08/05 03:11:34;;;;;;;4.22;3.30;;;22.00;99.90;;;;;;2080215;28;20018;-70
2022/08/05 03:12:37;;;;;;;4.85;2.70;;;22.00;99.90;;;;;;2075662;28;20076;-70
2022/08/05 03:13:38;;;;;;;4.18;3.47;;;22.00;99.90;;;;;;2075041;28;20018;-70
2022/08/05 03:14:39;;;;;;;3.85;3.30;;;22.00;99.90;;;;;;2074322;28;20552;-71
2022/08/05 03:15:43;;;;;;;6.68;3.65;;;22.00;99.90;;;;;;2075857;28;20371;-71
2022/08/05 03:16:44;;;;;;;5.88;3.33;;;22.00;99.90;;;;;;2075389;28;20026;-71
2022/08/05 03:17:45;;;;;;;5.35;3.95;;;22.00;99.90;;;;;;2076822;28;20053;-71
2022/08/05 03:18:46;;;;;;;5.53;3.65;;;21.90;99.90;;;;;;2076090;28;20096;-71
2022/08/05 03:19:46;;;;;;;4.95;3.60;;;21.90;99.90;;;;;;2074432;28;20088;-71
2022/08/05 03:20:47;;;;;;;7.53;4.10;;;21.90;99.90;;;;;;2072487;28;20045;-71
2022/08/05 03:21:47;;;;;;;4.47;3.67;;;21.90;99.90;;;;;;2073544;28;20050;-71
2022/08/05 03:22:48;;;;;;;6.18;3.25;;;21.90;99.90;;;;;;2076497;28;20053;-71
2022/08/05 03:23:49;;;;;;;4.68;3.60;;;21.90;99.90;;;;;;2076677;28;20032;-71
2022/08/05 03:24:50;;;;;;;4.25;3.20;;;21.80;99.90;;;;;;2072716;28;20018;-71
2022/08/05 03:25:51;;;;;;;4.85;3.40;;;21.80;99.90;;;;;;2075027;28;20119;-71
2022/08/05 03:26:52;;;;;;;7.70;3.45;;;21.80;99.90;;;;;;2073520;28;20033;-71
2022/08/05 03:27:55;;;;;;;6.80;3.65;;;21.80;99.90;;;;;;2075866;28;20500;-71
2022/08/05 03:28:56;;;;;;;3.97;3.58;;;21.80;99.90;;;;;;2073076;28;20362;-71
2022/08/05 03:29:57;;;;;;;7.55;4.03;;;21.80;99.90;;;;;;2064798;28;20026;-71
2022/08/05 03:31:00;;;;;;;4.85;2.97;;;21.80;99.90;;;;;;2073682;28;20018;-71
2022/08/05 03:32:02;;;;;;;6.32;4.07;;;21.80;99.90;;;;;;2072849;28;20026;-70
2022/08/05 03:33:04;;;;;;;5.15;3.78;;;21.80;99.90;;;;;;2074250;28;20017;-70
2022/08/05 03:34:05;;;;;;;5.32;3.83;;;21.80;99.90;;;;;;2073767;28;20029;-70
2022/08/05 03:35:07;;;;;;;7.35;3.83;;;21.80;99.90;;;;;;2075254;28;20024;-70
2022/08/05 03:36:09;;;;;;;6.88;4.45;;;21.80;99.90;;;;;;2075145;28;20603;-70
2022/08/05 03:37:10;;;;;;;7.15;4.53;;;21.80;99.90;;;;;;2074200;28;20080;-70
2022/08/05 03:38:12;;;;;;;4.20;3.67;;;21.80;99.90;;;;;;2073816;28;20030;-71
2022/08/05 03:39:12;;;;;;;5.32;4.10;;;21.70;99.90;;;;;;2074101;28;20561;-71
2022/08/05 03:40:13;;;;;;;5.05;3.45;;;21.70;99.90;;;;;;2072566;28;20018;-71
2022/08/05 03:41:15;;;;;;;6.15;4.13;;;21.70;99.90;;;;;;2072913;28;20061;-71
2022/08/05 03:42:16;;;;;;;5.60;4.28;;;21.70;99.90;;;;;;2076632;28;20509;-71
2022/08/05 03:43:17;;;;;;;6.63;4.20;;;21.70;99.90;;;;;;2075654;28;20397;-71
2022/08/05 03:44:17;;;;;;;6.30;4.10;;;21.60;99.90;;;;;;2074183;28;20025;-70
2022/08/05 03:45:18;;;;;;;7.10;4.15;;;21.60;99.90;;;;;;2074911;28;20465;-70
2022/08/05 03:46:19;;;;;;;6.65;4.90;;;21.60;99.90;;;;;;2073173;28;20351;-71
2022/08/05 03:47:19;;;;;;;5.15;4.25;;;21.60;99.90;;;;;;2073326;28;20059;-71
2022/08/05 03:48:20;;;;;;;5.68;3.70;;;21.50;99.90;;;;;;2072164;28;20077;-71
2022/08/05 03:49:21;;;;;;;6.72;4.60;;;21.50;99.90;;;;;;2071104;28;20103;-71
2022/08/05 03:50:21;;;;;;;5.20;4.43;;;21.50;99.90;;;;;;2077155;28;20030;-71
2022/08/05 03:51:29;;;;;;;7.03;4.43;;;21.50;99.90;;;;;;2075138;28;20025;-71
2022/08/05 03:52:34;;;;;;;6.72;4.22;;;21.40;99.90;;;;;;2075658;28;20075;-70
2022/08/05 03:53:42;;;;;;;6.07;4.72;;;21.40;99.90;;;;;;2073796;28;20026;-71
2022/08/05 03:55:00;;;;;;;8.70;5.28;;;21.40;99.90;;;;;;2071703;28;20038;-71
2022/08/05 03:56:25;;;;;;;7.97;4.68;;;21.30;99.90;;;;;;2073690;28;20040;-71
2022/08/05 03:57:31;;;;;;;6.63;5.45;;;21.30;99.90;;;;;;2055159;28;20027;-71
2022/08/05 03:58:34;;;;;;;6.68;4.60;;;21.30;99.90;;;;;;2067908;28;20018;-71
2022/08/05 03:59:48;;;;;;;6.28;4.82;;;21.30;99.90;;;;;;2076953;28;20045;-71
2022/08/05 04:00:50;;;;;;;6.32;5.03;;;21.30;99.90;;;;;;2075552;28;20122;-71
2022/08/05 04:01:52;;;;;;;9.10;5.38;;;21.20;99.90;;;;;;2074415;28;20034;-71
2022/08/05 04:02:55;;;;;;;10.07;5.00;;;21.20;99.90;;;;;;2072611;28;20647;-71
2022/08/05 04:03:58;;;;;;;10.13;5.38;;;21.20;99.90;;;;;;2071808;28;20034;-71
2022/08/05 04:05:00;;;;;;;9.45;5.72;;;21.10;99.90;;;;;;2073909;28;20160;-73
2022/08/05 04:06:02;;;;;;;6.93;5.35;;;21.10;99.90;;;;;;2073175;28;20030;-71
2022/08/05 04:07:04;;;;;;;8.38;5.30;;;21.10;99.90;;;;;;2073773;28;20030;-71
2022/08/05 04:08:08;;;;;;;5.82;4.90;;;21.10;99.90;;;;;;2074135;28;20032;-71
2022/08/05 04:09:10;;;;;;;6.47;5.85;;;21.10;99.90;;;;;;2075514;28;20029;-71
2022/08/05 04:10:11;;;;;;;7.07;5.32;;;21.10;99.90;;;;;;2074118;28;20030;-71
2022/08/05 04:11:12;;;;;;;5.35;4.70;;;21.10;99.90;;;;;;2073477;28;20026;-72
2022/08/05 04:12:12;;;;;;;7.22;5.30;;;21.10;99.90;;;;;;2073599;28;20462;-71
2022/08/05 04:13:13;;;;;;;8.63;4.78;;;21.10;99.90;;;;;;2074042;28;20022;-72
2022/08/05 04:14:16;;;;;;;10.48;4.68;;;21.20;99.90;;;;;;2074444;28;20117;-71
2022/08/05 04:15:17;;;;;;;7.80;5.80;;;21.20;99.90;;;;;;2077117;28;20559;-71
2022/08/05 04:16:18;;;;;;;6.65;4.57;;;21.20;99.90;;;;;;2077709;28;20021;-71
2022/08/05 04:17:19;;;;;;;5.30;4.85;;;21.20;99.90;;;;;;2073623;28;20033;-71
2022/08/05 04:18:23;;;;;;;6.05;5.32;;;21.20;99.90;;;;;;2074032;28;20577;-71
2022/08/05 04:19:24;;;;;;;7.85;4.53;;;21.20;99.90;;;;;;2074603;28;20030;-71
2022/08/05 04:20:24;;;;;;;5.60;4.90;;;21.20;99.90;;;;;;2074424;28;20124;-71
2022/08/05 04:21:25;;;;;;;8.90;4.95;;;21.30;99.90;;;;;;2074565;28;20029;-71
2022/08/05 04:22:25;;;;;;;8.23;5.10;;;21.30;99.90;;;;;;2075319;28;20418;-71
2022/08/05 04:23:28;;;;;;;6.32;5.72;;;21.30;99.90;;;;;;2075356;28;20489;-71
2022/08/05 04:24:28;;;;;;;8.15;5.90;;;21.30;99.90;;;;;;2072974;28;20085;-71
2022/08/05 04:25:29;;;;;;;7.47;5.90;;;21.30;99.90;;;;;;2074421;28;20291;-71
2022/08/05 04:26:30;;;;;;;8.18;5.90;;;21.30;99.90;;;;;;2073271;28;20486;-71
2022/08/05 04:27:30;;;;;;;6.47;5.72;;;21.30;99.90;;;;;;2073526;28;20511;-71
2022/08/05 04:28:31;;;;;;;7.55;5.32;;;21.30;99.90;;;;;;2071572;28;20172;-71
2022/08/05 04:29:31;;;;;;;7.35;6.03;;;21.30;99.90;;;;;;2076269;28;20029;-71
2022/08/05 04:30:32;;;;;;;7.72;5.22;;;21.30;99.90;;;;;;2074645;28;20018;-71
2022/08/05 04:31:33;;;;;;;7.97;4.80;;;21.30;99.90;;;;;;2074068;28;20022;-71
2022/08/05 04:32:33;;;;;;;7.60;5.28;;;21.30;99.90;;;;;;2073247;28;20138;-71
2022/08/05 04:33:34;;;;;;;8.60;5.32;;;21.30;99.90;;;;;;2074489;28;20433;-71
2022/08/05 04:34:35;;;;;;;8.63;6.07;;;21.30;99.90;;;;;;2073933;28;20416;-71
2022/08/05 04:35:35;;;;;;;6.60;4.82;;;21.30;99.90;;;;;;2073880;28;20034;-70
2022/08/05 04:36:36;;;;;;;6.20;5.45;;;21.30;99.90;;;;;;2073175;28;20093;-70
2022/08/05 04:37:36;;;;;;;7.85;4.80;;;21.40;99.90;;;;;;2076288;28;20381;-72
2022/08/05 04:38:37;;;;;;;7.75;5.53;;;21.30;99.90;;;;;;2072821;28;20097;-71
2022/08/05 04:39:38;;;;;;;7.10;6.20;;;21.40;99.90;;;;;;2073507;28;20044;-70
2022/08/05 04:40:40;;;;;;;8.50;6.93;;;21.30;99.90;;;;;;2076833;28;20032;-71
2022/08/05 04:41:40;;;;;;;10.73;7.38;;;21.40;99.90;;;;;;2076870;28;20112;-71
2022/08/05 04:42:41;;;;;;;10.82;8.10;;;21.30;99.90;;;;;;2071180;28;20014;-71
2022/08/05 04:43:41;;;;;;;12.40;7.72;;;21.30;99.90;;;;;;2072516;28;20030;-71
2022/08/05 04:44:42;;;;;;;13.02;7.63;;;21.30;99.90;;;;;;2073764;28;20026;-71
2022/08/05 04:45:42;;;;;;;8.05;7.20;;;21.30;99.90;;;;;;2074861;28;20022;-71
2022/08/05 04:46:43;;;;;;;8.77;7.40;;;21.20;99.90;;;;;;2073330;28;20481;-71
2022/08/05 04:47:44;;;;;;;10.80;6.75;;;21.30;99.90;;;;;;2073478;28;20537;-71
2022/08/05 04:48:44;;;;;;;6.97;6.28;;;21.20;99.90;;;;;;2075888;28;20036;-71
2022/08/05 04:49:45;;;;;;;10.57;7.80;;;21.20;99.90;;;;;;2074607;28;20385;-71
2022/08/05 04:50:48;;;;;;;9.85;8.07;;;21.20;99.90;;;;;;2077824;28;20072;-71
2022/08/05 04:51:48;;;;;;;8.27;6.15;;;21.20;99.90;;;;;;2074822;28;20072;-71
2022/08/05 04:52:49;;;;;;;8.98;5.65;;;21.20;99.90;;;;;;2073064;28;20148;-71
2022/08/05 04:53:49;;;;;;;5.85;5.20;;;21.20;99.90;;;;;;2073164;28;20509;-71
2022/08/05 04:54:50;;;;;;;9.60;7.15;;;21.20;99.90;;;;;;2074864;28;20037;-71
2022/08/05 04:55:51;;;;;;;8.80;7.20;;;21.20;99.90;;;;;;2074353;28;20044;-71
2022/08/05 04:56:52;;;;;;;9.40;5.70;;;21.30;99.90;;;;;;2075965;28;20029;-71
2022/08/05 04:57:53;;;;;;;8.07;6.07;;;21.30;99.90;;;;;;2072977;28;20028;-71
2022/08/05 04:58:54;;;;;;;9.18;7.57;;;21.30;99.90;;;;;;2074766;28;20040;-70
2022/08/05 04:59:54;;;;;;;9.93;6.78;;;21.30;99.90;;;;;;2074650;28;20527;-71
2022/08/05 05:00:55;;;;;;;10.40;7.22;;;21.30;99.90;;;;;;2072694;28;20021;-70
2022/08/05 05:01:57;;;;;;;9.35;8.25;;;21.30;99.90;;;;;;2073582;28;20021;-71
2022/08/05 05:02:57;;;;;;;10.25;6.78;;;21.40;99.90;;;;;;2074226;28;20017;-70
2022/08/05 05:03:58;;;;;;;9.15;8.18;;;21.30;99.90;;;;;;2075253;28;20108;-71
2022/08/05 05:04:59;;;;;;;11.88;9.68;;;21.30;99.90;;;;;;2074183;28;20034;-71
2022/08/05 05:05:59;;;;;;;12.07;9.32;;;21.30;99.90;;;;;;2073738;28;20033;-71
2022/08/05 05:07:00;;;;;;;10.77;9.73;;;21.30;99.90;;;;;;2076166;28;20404;-71
2022/08/05 05:08:02;;;;;;;10.85;9.70;;;21.30;99.90;;;;;;2075469;28;20033;-71
2022/08/05 05:09:03;;;;;;;11.45;10.27;;;21.30;99.90;;;;;;2072990;28;20021;-71
2022/08/05 05:10:05;;;;;;;9.73;8.80;;;21.30;99.90;;;;;;2075321;28;20066;-70
2022/08/05 05:11:06;;;;;;;8.70;7.60;;;21.20;99.90;;;;;;2074306;28;20537;-71
2022/08/05 05:12:06;;;;;;;12.65;9.63;;;21.20;99.90;;;;;;2075239;28;20413;-70
2022/08/05 05:13:08;;;;;;;9.98;8.98;;;21.20;99.90;;;;;;2073651;28;20460;-71
2022/08/05 05:14:09;;;;;;;10.80;9.55;;;21.20;99.90;;;;;;2072746;28;20033;-71
2022/08/05 05:15:09;;;;;;;10.07;8.50;;;21.20;99.90;;;;;;2069766;28;20477;-71
2022/08/05 05:16:10;;;;;;;10.10;9.05;;;21.20;99.90;;;;;;2074385;28;20026;-71
2022/08/05 05:17:11;;;;;;;11.20;9.95;;;21.10;99.90;;;;;;2074210;28;20101;-71
2022/08/05 05:18:13;;;;;;;11.60;10.07;;;21.10;99.90;;;;;;2077020;28;20032;-71
2022/08/05 05:19:14;;;;;;;11.20;10.07;;;21.10;99.90;;;;;;2074744;28;20041;-71
2022/08/05 05:20:15;;;;;;;12.00;9.02;;;21.10;99.90;;;;;;2074309;28;20029;-71
2022/08/05 05:21:15;;;;;;;9.98;8.70;;;21.00;99.90;;;;;;2074728;28;20022;-71
2022/08/05 05:22:16;;;;;;;11.98;10.13;;;21.00;99.90;;;;;;2073490;28;20144;-71
2022/08/05 05:23:16;;;;;;;12.70;10.52;;;21.00;99.90;;;;;;2072985;28;20025;-71
2022/08/05 05:24:20;;;;;;;11.38;10.18;;;21.00;99.90;;;;;;2074872;28;20488;-70
2022/08/05 05:25:21;;;;;;;13.00;10.57;;;21.00;99.90;;;;;;2075365;28;20109;-71
2022/08/05 05:26:21;;;;;;;11.68;10.48;;;21.00;99.90;;;;;;2074448;28;20135;-70
2022/08/05 05:27:22;;;;;;;13.73;11.43;;;21.00;99.90;;;;;;2074148;28;20013;-70